sensor_id;sensor_type;location;lat;lon;timestamp;P1;durP1;ratioP1;P2;durP2;ratioP2
43626;SDS011;29217;52.586;13.442;2024-03-22T00:00:06;15.32;;;7.70;;
43626;SDS011;29217;52.586;13.442;2024-03-22T00:02:36;15.60;;;7.82;;
43626;SDS011;29217;52.586;13.442;2024-03-22T00:05:05;16.95;;;8.57;;
43626;SDS011;29217;52.586;13.442;2024-03-22T00:07:30;19.25;;;8.55;;
43626;SDS011;29217;52.586;13.442;2024-03-22T00:09:56;17.20;;;9.23;;
43626;SDS011;29217;52.586;13.442;2024-03-22T00:12:22;16.25;;;8.45;;
43626;SDS011;29217;52.586;13.442;2024-03-22T00:14:47;17.35;;;8.23;;
43626;SDS011;29217;52.586;13.442;2024-03-22T00:17:13;17.00;;;8.65;;
43626;SDS011;29217;52.586;13.442;2024-03-22T00:19:39;19.75;;;8.43;;
43626;SDS011;29217;52.586;13.442;2024-03-22T00:22:05;15.25;;;7.90;;
43626;SDS011;29217;52.586;13.442;2024-03-22T00:24:30;16.38;;;8.10;;
43626;SDS011;29217;52.586;13.442;2024-03-22T00:26:56;17.35;;;8.63;;
43626;SDS011;29217;52.586;13.442;2024-03-22T00:29:21;17.88;;;8.02;;
43626;SDS011;29217;52.586;13.442;2024-03-22T00:31:47;18.10;;;8.60;;
43626;SDS011;29217;52.586;13.442;2024-03-22T00:34:13;21.13;;;9.07;;
43626;SDS011;29217;52.586;13.442;2024-03-22T00:36:38;17.63;;;8.20;;
43626;SDS011;29217;52.586;13.442;2024-03-22T00:39:04;18.10;;;7.40;;
43626;SDS011;29217;52.586;13.442;2024-03-22T00:41:30;20.33;;;9.02;;
43626;SDS011;29217;52.586;13.442;2024-03-22T00:43:56;16.10;;;8.13;;
43626;SDS011;29217;52.586;13.442;2024-03-22T00:46:22;20.13;;;8.95;;
43626;SDS011;29217;52.586;13.442;2024-03-22T00:48:48;19.90;;;8.93;;
43626;SDS011;29217;52.586;13.442;2024-03-22T00:51:14;15.15;;;7.70;;
43626;SDS011;29217;52.586;13.442;2024-03-22T00:53:39;16.65;;;8.13;;
43626;SDS011;29217;52.586;13.442;2024-03-22T00:56:05;17.60;;;8.25;;
43626;SDS011;29217;52.586;13.442;2024-03-22T00:58:31;17.92;;;8.27;;
43626;SDS011;29217;52.586;13.442;2024-03-22T01:00:56;21.58;;;9.48;;
43626;SDS011;29217;52.586;13.442;2024-03-22T01:03:22;18.90;;;8.73;;
43626;SDS011;29217;52.586;13.442;2024-03-22T01:05:48;20.88;;;8.85;;
43626;SDS011;29217;52.586;13.442;2024-03-22T01:08:14;19.38;;;8.77;;
43626;SDS011;29217;52.586;13.442;2024-03-22T01:10:40;21.92;;;10.05;;
43626;SDS011;29217;52.586;13.442;2024-03-22T01:13:06;19.17;;;9.25;;
43626;SDS011;29217;52.586;13.442;2024-03-22T01:15:32;18.45;;;8.77;;
43626;SDS011;29217;52.586;13.442;2024-03-22T01:17:57;18.77;;;8.52;;
43626;SDS011;29217;52.586;13.442;2024-03-22T01:20:23;20.52;;;9.15;;
43626;SDS011;29217;52.586;13.442;2024-03-22T01:22:49;18.70;;;8.90;;
43626;SDS011;29217;52.586;13.442;2024-03-22T01:25:14;18.50;;;8.68;;
43626;SDS011;29217;52.586;13.442;2024-03-22T01:27:40;20.30;;;8.88;;
43626;SDS011;29217;52.586;13.442;2024-03-22T01:30:06;16.77;;;7.93;;
43626;SDS011;29217;52.586;13.442;2024-03-22T01:32:32;19.50;;;8.52;;
43626;SDS011;29217;52.586;13.442;2024-03-22T01:34:57;19.75;;;8.35;;
43626;SDS011;29217;52.586;13.442;2024-03-22T01:37:23;19.33;;;8.82;;
43626;SDS011;29217;52.586;13.442;2024-03-22T01:39:48;19.67;;;8.80;;
43626;SDS011;29217;52.586;13.442;2024-03-22T01:42:14;20.92;;;8.95;;
43626;SDS011;29217;52.586;13.442;2024-03-22T01:44:39;20.80;;;9.13;;
43626;SDS011;29217;52.586;13.442;2024-03-22T01:47:06;20.98;;;9.65;;
43626;SDS011;29217;52.586;13.442;2024-03-22T01:49:32;19.60;;;9.00;;
43626;SDS011;29217;52.586;13.442;2024-03-22T01:51:58;18.98;;;8.82;;
43626;SDS011;29217;52.586;13.442;2024-03-22T01:54:23;25.88;;;9.57;;
43626;SDS011;29217;52.586;13.442;2024-03-22T01:56:49;21.13;;;9.05;;
43626;SDS011;29217;52.586;13.442;2024-03-22T01:59:15;24.15;;;9.25;;
43626;SDS011;29217;52.586;13.442;2024-03-22T02:01:41;17.65;;;8.18;;
43626;SDS011;29217;52.586;13.442;2024-03-22T02:04:07;23.35;;;9.38;;
43626;SDS011;29217;52.586;13.442;2024-03-22T02:06:32;20.25;;;8.77;;
43626;SDS011;29217;52.586;13.442;2024-03-22T02:08:58;24.60;;;9.95;;
43626;SDS011;29217;52.586;13.442;2024-03-22T02:11:25;20.40;;;8.43;;
43626;SDS011;29217;52.586;13.442;2024-03-22T02:13:51;26.80;;;9.43;;
43626;SDS011;29217;52.586;13.442;2024-03-22T02:16:17;26.42;;;10.20;;
43626;SDS011;29217;52.586;13.442;2024-03-22T02:18:42;22.48;;;9.10;;
43626;SDS011;29217;52.586;13.442;2024-03-22T02:21:09;26.58;;;9.43;;
43626;SDS011;29217;52.586;13.442;2024-03-22T02:23:35;18.13;;;7.93;;
43626;SDS011;29217;52.586;13.442;2024-03-22T02:26:02;24.23;;;8.88;;
43626;SDS011;29217;52.586;13.442;2024-03-22T02:28:29;21.48;;;9.32;;
43626;SDS011;29217;52.586;13.442;2024-03-22T02:30:56;21.80;;;9.48;;
43626;SDS011;29217;52.586;13.442;2024-03-22T02:33:22;25.85;;;9.63;;
43626;SDS011;29217;52.586;13.442;2024-03-22T02:35:48;18.20;;;8.52;;
43626;SDS011;29217;52.586;13.442;2024-03-22T02:38:14;22.45;;;9.43;;
43626;SDS011;29217;52.586;13.442;2024-03-22T02:40:42;20.95;;;9.63;;
43626;SDS011;29217;52.586;13.442;2024-03-22T02:43:09;23.85;;;9.43;;
43626;SDS011;29217;52.586;13.442;2024-03-22T02:45:35;19.30;;;8.30;;
43626;SDS011;29217;52.586;13.442;2024-03-22T02:48:00;22.42;;;8.80;;
43626;SDS011;29217;52.586;13.442;2024-03-22T02:50:26;21.90;;;8.43;;
43626;SDS011;29217;52.586;13.442;2024-03-22T02:52:51;22.70;;;9.77;;
43626;SDS011;29217;52.586;13.442;2024-03-22T02:55:17;22.23;;;9.30;;
43626;SDS011;29217;52.586;13.442;2024-03-22T02:57:43;22.90;;;8.90;;
43626;SDS011;29217;52.586;13.442;2024-03-22T03:00:09;20.73;;;8.27;;
43626;SDS011;29217;52.586;13.442;2024-03-22T03:02:35;24.13;;;8.98;;
43626;SDS011;29217;52.586;13.442;2024-03-22T03:05:00;20.13;;;8.27;;
43626;SDS011;29217;52.586;13.442;2024-03-22T03:07:26;18.38;;;8.55;;
43626;SDS011;29217;52.586;13.442;2024-03-22T03:09:52;18.75;;;7.65;;
43626;SDS011;29217;52.586;13.442;2024-03-22T03:12:18;23.17;;;8.60;;
43626;SDS011;29217;52.586;13.442;2024-03-22T03:14:44;17.98;;;7.47;;
43626;SDS011;29217;52.586;13.442;2024-03-22T03:17:09;17.35;;;7.28;;
43626;SDS011;29217;52.586;13.442;2024-03-22T03:19:35;18.88;;;7.80;;
43626;SDS011;29217;52.586;13.442;2024-03-22T03:22:01;19.23;;;7.68;;
43626;SDS011;29217;52.586;13.442;2024-03-22T03:24:27;20.13;;;7.55;;
43626;SDS011;29217;52.586;13.442;2024-03-22T03:26:52;19.23;;;7.88;;
43626;SDS011;29217;52.586;13.442;2024-03-22T03:29:18;22.27;;;8.00;;
43626;SDS011;29217;52.586;13.442;2024-03-22T03:31:44;20.50;;;8.68;;
43626;SDS011;29217;52.586;13.442;2024-03-22T03:34:09;21.80;;;7.38;;
43626;SDS011;29217;52.586;13.442;2024-03-22T03:36:35;18.65;;;8.02;;
43626;SDS011;29217;52.586;13.442;2024-03-22T03:39:01;23.77;;;8.20;;
43626;SDS011;29217;52.586;13.442;2024-03-22T03:41:27;18.42;;;7.22;;
43626;SDS011;29217;52.586;13.442;2024-03-22T03:43:52;18.45;;;7.10;;
43626;SDS011;29217;52.586;13.442;2024-03-22T03:46:18;18.90;;;7.03;;
43626;SDS011;29217;52.586;13.442;2024-03-22T03:48:43;17.65;;;7.85;;
43626;SDS011;29217;52.586;13.442;2024-03-22T03:51:09;19.20;;;7.97;;
43626;SDS011;29217;52.586;13.442;2024-03-22T03:53:34;19.52;;;7.40;;
43626;SDS011;29217;52.586;13.442;2024-03-22T03:56:00;18.33;;;7.75;;
43626;SDS011;29217;52.586;13.442;2024-03-22T03:58:26;23.23;;;8.98;;
43626;SDS011;29217;52.586;13.442;2024-03-22T04:00:52;19.33;;;8.13;;
43626;SDS011;29217;52.586;13.442;2024-03-22T04:03:17;16.40;;;7.22;;
43626;SDS011;29217;52.586;13.442;2024-03-22T04:05:43;20.85;;;7.38;;
43626;SDS011;29217;52.586;13.442;2024-03-22T04:08:08;22.25;;;8.50;;
43626;SDS011;29217;52.586;13.442;2024-03-22T04:10:34;16.63;;;7.75;;
43626;SDS011;29217;52.586;13.442;2024-03-22T04:12:59;20.25;;;7.70;;
43626;SDS011;29217;52.586;13.442;2024-03-22T04:15:25;23.35;;;7.53;;
43626;SDS011;29217;52.586;13.442;2024-03-22T04:17:50;19.77;;;7.18;;
43626;SDS011;29217;52.586;13.442;2024-03-22T04:20:16;15.00;;;7.13;;
43626;SDS011;29217;52.586;13.442;2024-03-22T04:22:42;19.63;;;8.43;;
43626;SDS011;29217;52.586;13.442;2024-03-22T04:25:07;17.10;;;7.47;;
43626;SDS011;29217;52.586;13.442;2024-03-22T04:27:35;15.27;;;6.82;;
43626;SDS011;29217;52.586;13.442;2024-03-22T04:30:02;18.17;;;7.55;;
43626;SDS011;29217;52.586;13.442;2024-03-22T04:32:28;14.32;;;6.47;;
43626;SDS011;29217;52.586;13.442;2024-03-22T04:34:53;23.48;;;8.18;;
43626;SDS011;29217;52.586;13.442;2024-03-22T04:37:20;23.88;;;7.82;;
43626;SDS011;29217;52.586;13.442;2024-03-22T04:39:46;14.70;;;6.43;;
43626;SDS011;29217;52.586;13.442;2024-03-22T04:42:11;19.02;;;7.82;;
43626;SDS011;29217;52.586;13.442;2024-03-22T04:44:37;20.50;;;8.73;;
43626;SDS011;29217;52.586;13.442;2024-03-22T04:47:03;19.27;;;7.60;;
43626;SDS011;29217;52.586;13.442;2024-03-22T04:49:28;16.65;;;7.40;;
43626;SDS011;29217;52.586;13.442;2024-03-22T04:51:54;16.75;;;7.30;;
43626;SDS011;29217;52.586;13.442;2024-03-22T04:54:20;17.15;;;6.93;;
43626;SDS011;29217;52.586;13.442;2024-03-22T04:56:45;16.42;;;7.50;;
43626;SDS011;29217;52.586;13.442;2024-03-22T04:59:11;16.63;;;6.95;;
43626;SDS011;29217;52.586;13.442;2024-03-22T05:01:36;19.38;;;7.55;;
43626;SDS011;29217;52.586;13.442;2024-03-22T05:04:02;18.48;;;7.00;;
43626;SDS011;29217;52.586;13.442;2024-03-22T05:06:28;16.38;;;6.88;;
43626;SDS011;29217;52.586;13.442;2024-03-22T05:08:53;15.82;;;7.10;;
43626;SDS011;29217;52.586;13.442;2024-03-22T05:11:19;23.23;;;7.60;;
43626;SDS011;29217;52.586;13.442;2024-03-22T05:13:44;17.38;;;6.85;;
43626;SDS011;29217;52.586;13.442;2024-03-22T05:16:11;17.40;;;7.30;;
43626;SDS011;29217;52.586;13.442;2024-03-22T05:18:37;12.50;;;5.95;;
43626;SDS011;29217;52.586;13.442;2024-03-22T05:21:03;18.80;;;6.82;;
43626;SDS011;29217;52.586;13.442;2024-03-22T05:23:28;16.48;;;7.18;;
43626;SDS011;29217;52.586;13.442;2024-03-22T05:25:54;18.30;;;7.85;;
43626;SDS011;29217;52.586;13.442;2024-03-22T05:28:20;15.70;;;7.13;;
43626;SDS011;29217;52.586;13.442;2024-03-22T05:30:46;17.77;;;7.43;;
43626;SDS011;29217;52.586;13.442;2024-03-22T05:33:12;17.30;;;7.55;;
43626;SDS011;29217;52.586;13.442;2024-03-22T05:35:37;18.45;;;7.22;;
43626;SDS011;29217;52.586;13.442;2024-03-22T05:38:03;19.35;;;7.40;;
43626;SDS011;29217;52.586;13.442;2024-03-22T05:40:29;16.25;;;7.30;;
43626;SDS011;29217;52.586;13.442;2024-03-22T05:42:55;15.90;;;6.95;;
43626;SDS011;29217;52.586;13.442;2024-03-22T05:45:21;16.70;;;6.90;;
43626;SDS011;29217;52.586;13.442;2024-03-22T05:47:47;16.38;;;7.35;;
43626;SDS011;29217;52.586;13.442;2024-03-22T05:50:12;18.05;;;7.28;;
43626;SDS011;29217;52.586;13.442;2024-03-22T05:52:39;21.02;;;7.38;;
43626;SDS011;29217;52.586;13.442;2024-03-22T05:55:05;19.33;;;7.88;;
43626;SDS011;29217;52.586;13.442;2024-03-22T05:57:31;20.40;;;8.05;;
43626;SDS011;29217;52.586;13.442;2024-03-22T05:59:56;19.52;;;8.25;;
43626;SDS011;29217;52.586;13.442;2024-03-22T06:02:22;18.17;;;7.88;;
43626;SDS011;29217;52.586;13.442;2024-03-22T06:04:48;16.23;;;7.65;;
43626;SDS011;29217;52.586;13.442;2024-03-22T06:07:14;22.67;;;8.02;;
43626;SDS011;29217;52.586;13.442;2024-03-22T06:09:41;21.90;;;8.75;;
43626;SDS011;29217;52.586;13.442;2024-03-22T06:12:14;17.10;;;8.23;;
43626;SDS011;29217;52.586;13.442;2024-03-22T06:14:40;17.20;;;8.02;;
43626;SDS011;29217;52.586;13.442;2024-03-22T06:17:06;16.55;;;7.07;;
43626;SDS011;29217;52.586;13.442;2024-03-22T06:19:32;17.33;;;8.13;;
43626;SDS011;29217;52.586;13.442;2024-03-22T06:21:57;21.45;;;8.23;;
43626;SDS011;29217;52.586;13.442;2024-03-22T06:24:23;20.55;;;8.18;;
43626;SDS011;29217;52.586;13.442;2024-03-22T06:26:48;18.10;;;8.07;;
43626;SDS011;29217;52.586;13.442;2024-03-22T06:29:15;17.60;;;7.97;;
43626;SDS011;29217;52.586;13.442;2024-03-22T06:31:43;15.68;;;7.25;;
43626;SDS011;29217;52.586;13.442;2024-03-22T06:34:09;17.63;;;6.90;;
43626;SDS011;29217;52.586;13.442;2024-03-22T06:36:34;16.40;;;7.32;;
43626;SDS011;29217;52.586;13.442;2024-03-22T06:39:00;17.90;;;7.88;;
43626;SDS011;29217;52.586;13.442;2024-03-22T06:41:28;16.52;;;8.10;;
43626;SDS011;29217;52.586;13.442;2024-03-22T06:43:54;18.63;;;8.10;;
43626;SDS011;29217;52.586;13.442;2024-03-22T06:46:19;16.85;;;7.60;;
43626;SDS011;29217;52.586;13.442;2024-03-22T06:48:45;18.25;;;7.97;;
43626;SDS011;29217;52.586;13.442;2024-03-22T06:51:11;16.80;;;7.55;;
43626;SDS011;29217;52.586;13.442;2024-03-22T06:53:37;20.42;;;8.52;;
43626;SDS011;29217;52.586;13.442;2024-03-22T06:56:03;15.07;;;7.47;;
43626;SDS011;29217;52.586;13.442;2024-03-22T06:58:29;19.95;;;8.23;;
43626;SDS011;29217;52.586;13.442;2024-03-22T07:00:54;15.82;;;7.65;;
43626;SDS011;29217;52.586;13.442;2024-03-22T07:03:20;15.80;;;7.50;;
43626;SDS011;29217;52.586;13.442;2024-03-22T07:05:48;17.42;;;8.00;;
43626;SDS011;29217;52.586;13.442;2024-03-22T07:08:14;19.15;;;7.88;;
43626;SDS011;29217;52.586;13.442;2024-03-22T07:10:39;16.77;;;7.78;;
43626;SDS011;29217;52.586;13.442;2024-03-22T07:13:05;18.50;;;8.25;;
43626;SDS011;29217;52.586;13.442;2024-03-22T07:15:31;18.88;;;7.75;;
43626;SDS011;29217;52.586;13.442;2024-03-22T07:17:57;18.90;;;8.85;;
43626;SDS011;29217;52.586;13.442;2024-03-22T07:20:23;21.90;;;8.65;;
43626;SDS011;29217;52.586;13.442;2024-03-22T07:22:49;20.60;;;9.25;;
43626;SDS011;29217;52.586;13.442;2024-03-22T07:25:15;21.30;;;8.38;;
43626;SDS011;29217;52.586;13.442;2024-03-22T07:27:41;18.90;;;9.07;;
43626;SDS011;29217;52.586;13.442;2024-03-22T07:30:06;24.20;;;9.85;;
43626;SDS011;29217;52.586;13.442;2024-03-22T07:32:32;24.08;;;8.90;;
43626;SDS011;29217;52.586;13.442;2024-03-22T07:34:58;21.73;;;9.25;;
43626;SDS011;29217;52.586;13.442;2024-03-22T07:37:24;26.77;;;9.50;;
43626;SDS011;29217;52.586;13.442;2024-03-22T07:39:49;20.52;;;8.70;;
43626;SDS011;29217;52.586;13.442;2024-03-22T07:42:16;20.42;;;8.60;;
43626;SDS011;29217;52.586;13.442;2024-03-22T07:44:42;19.40;;;8.73;;
43626;SDS011;29217;52.586;13.442;2024-03-22T07:47:07;23.70;;;9.85;;
43626;SDS011;29217;52.586;13.442;2024-03-22T07:49:33;25.77;;;10.00;;
43626;SDS011;29217;52.586;13.442;2024-03-22T07:51:59;23.90;;;9.45;;
43626;SDS011;29217;52.586;13.442;2024-03-22T07:54:25;25.83;;;10.50;;
43626;SDS011;29217;52.586;13.442;2024-03-22T07:56:51;23.77;;;9.32;;
43626;SDS011;29217;52.586;13.442;2024-03-22T07:59:16;23.05;;;9.77;;
43626;SDS011;29217;52.586;13.442;2024-03-22T08:01:42;24.33;;;8.90;;
43626;SDS011;29217;52.586;13.442;2024-03-22T08:04:07;26.52;;;10.43;;
43626;SDS011;29217;52.586;13.442;2024-03-22T08:06:33;23.13;;;9.85;;
43626;SDS011;29217;52.586;13.442;2024-03-22T08:08:59;28.02;;;10.75;;
43626;SDS011;29217;52.586;13.442;2024-03-22T08:11:26;22.63;;;9.38;;
43626;SDS011;29217;52.586;13.442;2024-03-22T08:13:52;22.58;;;10.05;;
43626;SDS011;29217;52.586;13.442;2024-03-22T08:16:18;22.83;;;9.77;;
43626;SDS011;29217;52.586;13.442;2024-03-22T08:18:44;21.75;;;9.82;;
43626;SDS011;29217;52.586;13.442;2024-03-22T08:21:10;21.85;;;9.57;;
43626;SDS011;29217;52.586;13.442;2024-03-22T08:23:35;24.77;;;9.93;;
43626;SDS011;29217;52.586;13.442;2024-03-22T08:26:01;22.63;;;9.50;;
43626;SDS011;29217;52.586;13.442;2024-03-22T08:28:27;24.52;;;9.70;;
43626;SDS011;29217;52.586;13.442;2024-03-22T08:30:52;21.80;;;9.25;;
43626;SDS011;29217;52.586;13.442;2024-03-22T08:33:18;23.80;;;10.35;;
43626;SDS011;29217;52.586;13.442;2024-03-22T08:35:44;26.40;;;11.02;;
43626;SDS011;29217;52.586;13.442;2024-03-22T08:38:09;22.23;;;9.77;;
43626;SDS011;29217;52.586;13.442;2024-03-22T08:40:36;26.80;;;10.73;;
43626;SDS011;29217;52.586;13.442;2024-03-22T08:43:03;23.98;;;9.98;;
43626;SDS011;29217;52.586;13.442;2024-03-22T08:45:29;25.52;;;10.25;;
43626;SDS011;29217;52.586;13.442;2024-03-22T08:47:54;27.83;;;10.65;;
43626;SDS011;29217;52.586;13.442;2024-03-22T08:50:20;21.60;;;10.15;;
43626;SDS011;29217;52.586;13.442;2024-03-22T08:52:45;20.63;;;9.63;;
43626;SDS011;29217;52.586;13.442;2024-03-22T08:55:11;23.33;;;10.02;;
43626;SDS011;29217;52.586;13.442;2024-03-22T08:57:38;22.23;;;10.10;;
43626;SDS011;29217;52.586;13.442;2024-03-22T09:00:03;28.23;;;10.75;;
43626;SDS011;29217;52.586;13.442;2024-03-22T09:02:30;25.35;;;10.63;;
43626;SDS011;29217;52.586;13.442;2024-03-22T09:04:55;22.42;;;10.10;;
43626;SDS011;29217;52.586;13.442;2024-03-22T09:07:21;24.08;;;10.38;;
43626;SDS011;29217;52.586;13.442;2024-03-22T09:09:46;22.65;;;9.70;;
43626;SDS011;29217;52.586;13.442;2024-03-22T09:12:12;23.30;;;10.73;;
43626;SDS011;29217;52.586;13.442;2024-03-22T09:14:38;22.33;;;9.98;;
43626;SDS011;29217;52.586;13.442;2024-03-22T09:17:03;28.13;;;10.27;;
43626;SDS011;29217;52.586;13.442;2024-03-22T09:19:29;24.65;;;10.23;;
43626;SDS011;29217;52.586;13.442;2024-03-22T09:21:54;26.25;;;11.05;;
43626;SDS011;29217;52.586;13.442;2024-03-22T09:24:20;24.50;;;10.43;;
43626;SDS011;29217;52.586;13.442;2024-03-22T09:26:46;29.92;;;11.23;;
43626;SDS011;29217;52.586;13.442;2024-03-22T09:29:13;26.65;;;10.70;;
43626;SDS011;29217;52.586;13.442;2024-03-22T09:31:38;24.77;;;10.38;;
43626;SDS011;29217;52.586;13.442;2024-03-22T09:34:04;25.73;;;10.77;;
43626;SDS011;29217;52.586;13.442;2024-03-22T09:36:30;21.35;;;9.32;;
43626;SDS011;29217;52.586;13.442;2024-03-22T09:39:00;23.20;;;10.07;;
43626;SDS011;29217;52.586;13.442;2024-03-22T09:41:26;22.23;;;10.18;;
43626;SDS011;29217;52.586;13.442;2024-03-22T09:43:52;24.63;;;10.52;;
43626;SDS011;29217;52.586;13.442;2024-03-22T09:46:19;22.10;;;9.52;;
43626;SDS011;29217;52.586;13.442;2024-03-22T09:48:47;23.10;;;10.05;;
43626;SDS011;29217;52.586;13.442;2024-03-22T09:51:15;23.60;;;10.70;;
43626;SDS011;29217;52.586;13.442;2024-03-22T09:53:44;27.10;;;10.00;;
43626;SDS011;29217;52.586;13.442;2024-03-22T09:56:12;22.75;;;10.00;;
43626;SDS011;29217;52.586;13.442;2024-03-22T09:58:42;23.77;;;9.63;;
43626;SDS011;29217;52.586;13.442;2024-03-22T10:01:09;21.67;;;9.63;;
43626;SDS011;29217;52.586;13.442;2024-03-22T10:03:37;22.17;;;10.13;;
43626;SDS011;29217;52.586;13.442;2024-03-22T10:06:03;22.70;;;10.07;;
43626;SDS011;29217;52.586;13.442;2024-03-22T10:08:29;22.45;;;10.38;;
43626;SDS011;29217;52.586;13.442;2024-03-22T10:10:55;22.95;;;10.43;;
43626;SDS011;29217;52.586;13.442;2024-03-22T10:13:21;26.85;;;10.70;;
43626;SDS011;29217;52.586;13.442;2024-03-22T10:15:46;28.77;;;10.73;;
43626;SDS011;29217;52.586;13.442;2024-03-22T10:18:12;23.65;;;9.85;;
43626;SDS011;29217;52.586;13.442;2024-03-22T10:20:39;24.33;;;9.82;;
43626;SDS011;29217;52.586;13.442;2024-03-22T10:23:07;29.08;;;10.48;;
43626;SDS011;29217;52.586;13.442;2024-03-22T10:25:33;28.50;;;11.38;;
43626;SDS011;29217;52.586;13.442;2024-03-22T10:27:59;26.33;;;9.90;;
43626;SDS011;29217;52.586;13.442;2024-03-22T10:30:25;21.15;;;9.10;;
43626;SDS011;29217;52.586;13.442;2024-03-22T10:32:51;23.35;;;10.40;;
43626;SDS011;29217;52.586;13.442;2024-03-22T10:35:17;21.88;;;9.88;;
43626;SDS011;29217;52.586;13.442;2024-03-22T10:37:43;20.35;;;9.25;;
43626;SDS011;29217;52.586;13.442;2024-03-22T10:40:10;21.45;;;8.50;;
43626;SDS011;29217;52.586;13.442;2024-03-22T10:42:36;21.98;;;8.57;;
43626;SDS011;29217;52.586;13.442;2024-03-22T10:45:03;23.67;;;9.40;;
43626;SDS011;29217;52.586;13.442;2024-03-22T10:47:37;21.00;;;9.25;;
43626;SDS011;29217;52.586;13.442;2024-03-22T10:50:06;21.15;;;9.10;;
43626;SDS011;29217;52.586;13.442;2024-03-22T10:52:39;19.38;;;8.88;;
43626;SDS011;29217;52.586;13.442;2024-03-22T10:55:30;20.83;;;9.07;;
43626;SDS011;29217;52.586;13.442;2024-03-22T10:57:59;18.67;;;8.15;;
43626;SDS011;29217;52.586;13.442;2024-03-22T11:00:31;17.55;;;9.00;;
43626;SDS011;29217;52.586;13.442;2024-03-22T11:02:58;16.60;;;7.30;;
43626;SDS011;29217;52.586;13.442;2024-03-22T11:05:27;23.23;;;9.05;;
43626;SDS011;29217;52.586;13.442;2024-03-22T11:08:26;20.52;;;8.95;;
43626;SDS011;29217;52.586;13.442;2024-03-22T11:10:50;18.02;;;8.30;;
43626;SDS011;29217;52.586;13.442;2024-03-22T11:13:16;18.45;;;8.73;;
43626;SDS011;29217;52.586;13.442;2024-03-22T11:15:42;19.08;;;8.68;;
43626;SDS011;29217;52.586;13.442;2024-03-22T11:18:08;18.05;;;8.75;;
43626;SDS011;29217;52.586;13.442;2024-03-22T11:20:36;17.98;;;7.82;;
43626;SDS011;29217;52.586;13.442;2024-03-22T11:23:03;20.40;;;8.52;;
43626;SDS011;29217;52.586;13.442;2024-03-22T11:25:33;17.25;;;7.82;;
43626;SDS011;29217;52.586;13.442;2024-03-22T11:27:59;17.58;;;7.88;;
43626;SDS011;29217;52.586;13.442;2024-03-22T11:30:28;20.77;;;8.18;;
43626;SDS011;29217;52.586;13.442;2024-03-22T11:32:55;15.30;;;7.50;;
43626;SDS011;29217;52.586;13.442;2024-03-22T11:35:21;16.20;;;7.70;;
43626;SDS011;29217;52.586;13.442;2024-03-22T11:37:47;14.20;;;7.18;;
43626;SDS011;29217;52.586;13.442;2024-03-22T11:40:14;17.30;;;8.07;;
43626;SDS011;29217;52.586;13.442;2024-03-22T11:42:40;20.02;;;8.13;;
43626;SDS011;29217;52.586;13.442;2024-03-22T11:45:08;17.73;;;8.02;;
43626;SDS011;29217;52.586;13.442;2024-03-22T11:47:36;20.60;;;8.43;;
43626;SDS011;29217;52.586;13.442;2024-03-22T11:50:02;19.27;;;8.63;;
43626;SDS011;29217;52.586;13.442;2024-03-22T11:52:28;20.33;;;8.52;;
43626;SDS011;29217;52.586;13.442;2024-03-22T11:54:54;19.48;;;8.93;;
43626;SDS011;29217;52.586;13.442;2024-03-22T11:57:21;20.55;;;9.00;;
43626;SDS011;29217;52.586;13.442;2024-03-22T11:59:46;25.02;;;9.93;;
43626;SDS011;29217;52.586;13.442;2024-03-22T12:02:12;20.17;;;9.48;;
43626;SDS011;29217;52.586;13.442;2024-03-22T12:04:41;26.20;;;9.63;;
43626;SDS011;29217;52.586;13.442;2024-03-22T12:07:15;21.48;;;8.32;;
43626;SDS011;29217;52.586;13.442;2024-03-22T12:09:42;20.60;;;8.45;;
43626;SDS011;29217;52.586;13.442;2024-03-22T12:12:09;22.05;;;8.85;;
43626;SDS011;29217;52.586;13.442;2024-03-22T12:14:35;22.25;;;9.02;;
43626;SDS011;29217;52.586;13.442;2024-03-22T12:17:01;20.73;;;9.02;;
43626;SDS011;29217;52.586;13.442;2024-03-22T12:19:28;19.20;;;8.88;;
43626;SDS011;29217;52.586;13.442;2024-03-22T12:21:54;25.58;;;9.98;;
43626;SDS011;29217;52.586;13.442;2024-03-22T12:24:19;21.05;;;9.15;;
43626;SDS011;29217;52.586;13.442;2024-03-22T12:26:45;19.23;;;9.07;;
43626;SDS011;29217;52.586;13.442;2024-03-22T12:29:12;26.55;;;10.00;;
43626;SDS011;29217;52.586;13.442;2024-03-22T12:31:38;26.05;;;9.90;;
43626;SDS011;29217;52.586;13.442;2024-03-22T12:34:04;26.58;;;10.30;;
43626;SDS011;29217;52.586;13.442;2024-03-22T12:36:29;23.48;;;9.77;;
43626;SDS011;29217;52.586;13.442;2024-03-22T12:38:55;23.95;;;9.95;;
43626;SDS011;29217;52.586;13.442;2024-03-22T12:41:21;25.20;;;9.55;;
43626;SDS011;29217;52.586;13.442;2024-03-22T12:43:46;29.35;;;10.73;;
43626;SDS011;29217;52.586;13.442;2024-03-22T12:46:12;25.60;;;9.57;;
43626;SDS011;29217;52.586;13.442;2024-03-22T12:48:37;27.15;;;10.80;;
43626;SDS011;29217;52.586;13.442;2024-03-22T12:51:03;30.42;;;11.43;;
43626;SDS011;29217;52.586;13.442;2024-03-22T12:53:29;27.55;;;10.07;;
43626;SDS011;29217;52.586;13.442;2024-03-22T12:55:54;27.27;;;10.23;;
43626;SDS011;29217;52.586;13.442;2024-03-22T12:58:20;35.60;;;11.93;;
43626;SDS011;29217;52.586;13.442;2024-03-22T13:00:46;34.22;;;11.32;;
43626;SDS011;29217;52.586;13.442;2024-03-22T13:03:11;25.77;;;10.98;;
43626;SDS011;29217;52.586;13.442;2024-03-22T13:05:38;29.48;;;11.13;;
43626;SDS011;29217;52.586;13.442;2024-03-22T13:08:04;30.73;;;10.98;;
43626;SDS011;29217;52.586;13.442;2024-03-22T13:10:30;29.58;;;10.52;;
43626;SDS011;29217;52.586;13.442;2024-03-22T13:12:55;29.48;;;10.95;;
43626;SDS011;29217;52.586;13.442;2024-03-22T13:15:22;28.52;;;11.48;;
43626;SDS011;29217;52.586;13.442;2024-03-22T13:17:48;32.50;;;11.50;;
43626;SDS011;29217;52.586;13.442;2024-03-22T13:20:13;32.10;;;10.35;;
43626;SDS011;29217;52.586;13.442;2024-03-22T13:22:40;28.45;;;11.18;;
43626;SDS011;29217;52.586;13.442;2024-03-22T13:25:06;28.27;;;10.93;;
43626;SDS011;29217;52.586;13.442;2024-03-22T13:27:34;29.13;;;11.63;;
43626;SDS011;29217;52.586;13.442;2024-03-22T13:30:00;38.47;;;12.45;;
43626;SDS011;29217;52.586;13.442;2024-03-22T13:32:26;28.75;;;10.80;;
43626;SDS011;29217;52.586;13.442;2024-03-22T13:34:52;30.27;;;11.02;;
43626;SDS011;29217;52.586;13.442;2024-03-22T13:37:18;29.85;;;12.13;;
43626;SDS011;29217;52.586;13.442;2024-03-22T13:39:47;31.65;;;10.98;;
43626;SDS011;29217;52.586;13.442;2024-03-22T13:42:16;31.20;;;10.68;;
43626;SDS011;29217;52.586;13.442;2024-03-22T13:44:42;30.98;;;9.95;;
43626;SDS011;29217;52.586;13.442;2024-03-22T13:47:08;25.23;;;9.73;;
43626;SDS011;29217;52.586;13.442;2024-03-22T13:49:33;28.88;;;9.98;;
43626;SDS011;29217;52.586;13.442;2024-03-22T13:51:59;27.48;;;10.63;;
43626;SDS011;29217;52.586;13.442;2024-03-22T13:54:24;25.08;;;10.02;;
43626;SDS011;29217;52.586;13.442;2024-03-22T13:56:50;28.90;;;10.68;;
43626;SDS011;29217;52.586;13.442;2024-03-22T13:59:16;29.88;;;11.13;;
43626;SDS011;29217;52.586;13.442;2024-03-22T14:01:41;24.13;;;9.98;;
43626;SDS011;29217;52.586;13.442;2024-03-22T14:04:10;22.10;;;9.45;;
43626;SDS011;29217;52.586;13.442;2024-03-22T14:06:37;26.52;;;8.93;;
43626;SDS011;29217;52.586;13.442;2024-03-22T14:09:03;21.80;;;7.80;;
43626;SDS011;29217;52.586;13.442;2024-03-22T14:11:30;24.10;;;8.32;;